createdAt,value
2023-01-06T00:02:19.575Z,4.77
2023-01-06T00:04:46.537Z,4.67
2023-01-06T00:07:13.391Z,4.50
2023-01-06T00:09:40.334Z,4.52
2023-01-06T00:12:08.108Z,4.60
2023-01-06T00:14:35.052Z,4.64
2023-01-06T00:17:03.301Z,4.59
2023-01-06T00:19:30.157Z,4.41
2023-01-06T00:21:57.032Z,4.49
2023-01-06T00:24:25.172Z,4.95
2023-01-06T00:26:51.945Z,5.41
2023-01-06T00:29:18.776Z,5.60
2023-01-06T00:31:45.810Z,5.41
2023-01-06T00:34:14.222Z,5.27
2023-01-06T00:36:41.213Z,5.14
2023-01-06T00:39:07.968Z,4.87
2023-01-06T00:41:36.936Z,4.45
2023-01-06T00:44:04.262Z,4.41
2023-01-06T00:46:32.915Z,4.52
2023-01-06T00:49:05.529Z,4.44
2023-01-06T00:51:40.688Z,4.50
2023-01-06T00:54:08.650Z,4.56
2023-01-06T00:56:37.799Z,4.53
2023-01-06T00:59:05.250Z,4.40
2023-01-06T01:01:34.741Z,4.39
2023-01-06T01:04:03.003Z,4.34
2023-01-06T01:06:31.399Z,4.30
2023-01-06T01:09:01.070Z,4.05
2023-01-06T01:11:28.644Z,3.87
2023-01-06T01:13:55.476Z,3.75
2023-01-06T01:16:22.515Z,3.78
2023-01-06T01:18:49.375Z,3.81
2023-01-06T01:21:16.469Z,3.79
2023-01-06T01:23:43.351Z,3.73
2023-01-06T01:26:11.577Z,3.65
2023-01-06T01:28:39.629Z,3.57
2023-01-06T01:31:06.827Z,3.65
2023-01-06T01:33:34.817Z,3.62
2023-01-06T01:36:06.351Z,3.65
2023-01-06T01:38:33.288Z,3.57
2023-01-06T01:41:00.759Z,3.40
2023-01-06T01:43:46.128Z,3.39
2023-01-06T01:46:19.832Z,3.30
2023-01-06T01:48:49.229Z,3.24
2023-01-06T01:51:19.808Z,3.26
2023-01-06T01:53:49.899Z,3.29
2023-01-06T01:56:22.667Z,3.34
2023-01-06T01:58:57.677Z,3.48
2023-01-06T02:01:24.747Z,3.52
2023-01-06T02:03:52.924Z,3.56
2023-01-06T02:06:23.145Z,3.26
2023-01-06T02:08:57.131Z,3.12
2023-01-06T02:11:26.836Z,3.12
2023-01-06T02:14:10.696Z,3.15
2023-01-06T02:16:47.286Z,3.01
2023-01-06T02:19:38.134Z,2.98
2023-01-06T02:22:23.841Z,2.92
2023-01-06T02:25:10.244Z,2.90
2023-01-06T02:28:00.174Z,3.01
2023-01-06T02:30:55.487Z,3.00
2023-01-06T02:33:30.285Z,2.83
2023-01-06T02:36:27.719Z,2.83
2023-01-06T02:39:08.874Z,2.85
2023-01-06T02:41:43.094Z,2.85
2023-01-06T02:44:20.303Z,2.94
2023-01-06T02:47:06.276Z,2.93
2023-01-06T02:49:43.907Z,2.92
2023-01-06T02:52:20.103Z,2.93
2023-01-06T02:54:55.118Z,2.92
2023-01-06T02:57:29.908Z,3.04
2023-01-06T03:00:04.184Z,3.09
2023-01-06T03:02:39.749Z,3.09
2023-01-06T03:05:12.505Z,3.07
2023-01-06T03:07:43.477Z,3.03
2023-01-06T03:10:13.904Z,2.92
2023-01-06T03:12:49.241Z,2.95
2023-01-06T03:15:16.174Z,2.88
2023-01-06T03:17:43.655Z,2.79
2023-01-06T03:20:14.369Z,2.54
2023-01-06T03:22:41.448Z,2.28
2023-01-06T03:25:10.484Z,2.32
2023-01-06T03:27:39.232Z,2.46
2023-01-06T03:30:10.442Z,2.49
2023-01-06T03:32:45.071Z,2.70
2023-01-06T03:38:14.980Z,2.83
2023-01-06T03:40:49.894Z,2.76
2023-01-06T03:43:25.981Z,2.73
2023-01-06T03:46:00.846Z,2.75
2023-01-06T03:48:49.738Z,2.67
2023-01-06T03:51:29.517Z,2.69
2023-01-06T03:54:01.888Z,2.77
2023-01-06T03:56:35.398Z,2.67
2023-01-06T03:59:07.438Z,2.59
2023-01-06T04:01:34.992Z,2.60
2023-01-06T04:04:04.597Z,2.57
2023-01-06T04:06:34.564Z,2.50
2023-01-06T04:09:02.895Z,2.47
2023-01-06T04:11:29.667Z,2.57
2023-01-06T04:13:56.844Z,2.45
2023-01-06T04:16:23.655Z,2.45
2023-01-06T04:18:50.489Z,2.27
2023-01-06T04:21:17.512Z,2.33
2023-01-06T04:23:44.882Z,2.25
2023-01-06T04:26:14.373Z,2.30
2023-01-06T04:28:41.208Z,2.49
2023-01-06T04:31:08.640Z,2.52
2023-01-06T04:33:35.852Z,2.57
2023-01-06T04:36:03.152Z,2.56
2023-01-06T04:38:31.015Z,2.56
2023-01-06T04:40:57.761Z,2.51
2023-01-06T04:43:25.941Z,2.14
2023-01-06T04:45:53.014Z,2.09
2023-01-06T04:48:19.887Z,2.21
2023-01-06T04:50:46.772Z,2.35
2023-01-06T04:53:13.527Z,2.34
2023-01-06T04:55:41.859Z,2.35
2023-01-06T04:58:09.026Z,2.34
2023-01-06T05:00:37.244Z,2.29
2023-01-06T05:03:04.247Z,2.20
2023-01-06T05:05:31.035Z,2.10
2023-01-06T05:08:00.714Z,2.12
2023-01-06T05:10:27.491Z,2.03
2023-01-06T05:12:54.394Z,1.98
2023-01-06T05:15:21.131Z,1.97
2023-01-06T05:17:49.962Z,1.80
2023-01-06T05:20:17.250Z,1.66
2023-01-06T05:22:44.201Z,1.56
2023-01-06T05:25:10.968Z,1.62
2023-01-06T05:27:37.817Z,1.64
2023-01-06T05:30:05.889Z,1.64
2023-01-06T05:32:34.959Z,1.64
2023-01-06T05:35:03.220Z,1.79
2023-01-06T05:37:29.988Z,1.74
2023-01-06T05:39:58.021Z,1.72
2023-01-06T05:42:25.978Z,1.78
2023-01-06T05:44:53.885Z,1.83
2023-01-06T05:47:20.731Z,1.83
2023-01-06T05:49:47.547Z,1.60
2023-01-06T05:52:15.975Z,1.62
2023-01-06T05:54:44.809Z,1.65
2023-01-06T05:57:11.841Z,1.32
2023-01-06T05:59:42.206Z,1.29
2023-01-06T06:02:08.954Z,1.27
2023-01-06T06:04:36.999Z,1.33
2023-01-06T06:07:03.740Z,1.36
2023-01-06T06:09:32.022Z,1.38
2023-01-06T06:11:58.871Z,1.40
2023-01-06T06:14:25.784Z,1.45
2023-01-06T06:16:53.657Z,1.27
2023-01-06T06:19:23.015Z,1.16
2023-01-06T06:21:50.625Z,1.19
2023-01-06T06:24:18.640Z,1.24
2023-01-06T06:26:49.288Z,1.27
2023-01-06T06:29:16.040Z,1.25
2023-01-06T06:31:42.836Z,1.30
2023-01-06T06:34:12.551Z,1.33
2023-01-06T06:36:43.205Z,1.37
2023-01-06T06:39:09.987Z,1.38
2023-01-06T06:41:37.151Z,1.31
2023-01-06T06:44:05.478Z,1.25
2023-01-06T06:46:36.710Z,1.28
2023-01-06T06:49:03.796Z,1.26
2023-01-06T06:51:30.987Z,1.24
2023-01-06T06:53:58.597Z,1.20
2023-01-06T06:56:25.758Z,1.18
2023-01-06T06:58:52.592Z,1.16
2023-01-06T07:01:21.724Z,1.21
2023-01-06T07:03:50.979Z,1.19
2023-01-06T07:06:21.099Z,1.26
2023-01-06T07:08:49.416Z,1.37
2023-01-06T07:11:18.181Z,1.41
2023-01-06T07:13:47.003Z,1.52
2023-01-06T07:16:14.981Z,1.50
2023-01-06T07:18:45.382Z,1.36
2023-01-06T07:21:13.317Z,1.25
2023-01-06T07:23:42.401Z,1.33
2023-01-06T07:26:09.808Z,1.38
2023-01-06T07:28:38.655Z,1.43
2023-01-06T07:31:06.107Z,1.39
2023-01-06T07:33:35.132Z,1.27
2023-01-06T07:36:03.690Z,1.27
2023-01-06T07:38:30.649Z,1.37
2023-01-06T07:40:59.890Z,1.41
2023-01-06T07:43:26.983Z,1.52
2023-01-06T07:45:53.898Z,1.55
2023-01-06T07:48:21.976Z,1.56
2023-01-06T07:50:49.700Z,1.62
2023-01-06T07:53:18.468Z,1.66
2023-01-06T07:55:51.076Z,1.60
2023-01-06T07:58:19.059Z,1.83
2023-01-06T08:00:47.226Z,1.95
2023-01-06T08:03:14.211Z,2.08
2023-01-06T08:05:42.018Z,2.20
2023-01-06T08:08:09.217Z,2.25
2023-01-06T08:10:40.218Z,2.38
2023-01-06T08:13:07.525Z,2.47
2023-01-06T08:15:35.934Z,2.61
2023-01-06T08:18:02.765Z,2.74
2023-01-06T08:20:29.731Z,2.84
2023-01-06T08:22:57.734Z,3.01
2023-01-06T08:25:24.766Z,3.11
2023-01-06T08:27:53.164Z,3.19
2023-01-06T08:30:21.634Z,3.28
2023-01-06T08:32:48.888Z,3.37
2023-01-06T08:35:19.992Z,3.51
2023-01-06T08:37:46.849Z,3.61
2023-01-06T08:40:14.791Z,3.73
2023-01-06T08:42:41.852Z,3.86
2023-01-06T08:45:10.475Z,3.98
2023-01-06T08:47:37.344Z,4.08
2023-01-06T08:50:05.284Z,4.16
2023-01-06T08:52:32.514Z,4.20
2023-01-06T08:54:59.401Z,4.20
2023-01-06T08:57:28.591Z,4.29
2023-01-06T08:59:55.623Z,4.33
2023-01-06T09:02:24.945Z,4.37
2023-01-06T09:04:51.703Z,4.40
2023-01-06T09:07:18.790Z,4.46
2023-01-06T09:09:45.641Z,4.54
2023-01-06T09:12:12.866Z,4.60
2023-01-06T09:14:40.676Z,4.66
2023-01-06T09:17:08.891Z,4.74
2023-01-06T09:19:37.038Z,4.82
2023-01-06T09:22:04.728Z,4.99
2023-01-06T09:24:32.487Z,5.16
2023-01-06T09:27:00.743Z,5.30
2023-01-06T09:29:28.747Z,5.46
2023-01-06T09:31:55.628Z,5.62
2023-01-06T09:34:22.648Z,5.77
2023-01-06T09:36:50.924Z,5.93
2023-01-06T09:39:21.795Z,6.05
2023-01-06T09:42:30.330Z,6.20
2023-01-06T09:45:04.664Z,6.37
2023-01-06T09:47:37.931Z,6.50
2023-01-06T09:50:14.109Z,6.62
2023-01-06T09:52:46.667Z,6.72
2023-01-06T09:55:21.519Z,6.82
2023-01-06T09:57:56.506Z,6.94
2023-01-06T10:00:35.165Z,7.08
2023-01-06T10:03:04.109Z,7.19
2023-01-06T10:05:42.513Z,7.29
2023-01-06T10:08:20.115Z,7.40
2023-01-06T10:11:01.052Z,7.46
2023-01-06T10:13:46.701Z,7.44
2023-01-06T10:16:24.121Z,7.53
2023-01-06T10:19:01.516Z,7.66
2023-01-06T10:21:32.814Z,7.83
2023-01-06T10:24:25.107Z,7.81
2023-01-06T10:26:59.011Z,7.96
2023-01-06T10:29:32.210Z,8.08
2023-01-06T10:32:01.936Z,8.16
2023-01-06T10:34:38.532Z,8.19
2023-01-06T10:37:21.644Z,8.10
2023-01-06T10:40:01.774Z,8.15
2023-01-06T10:42:39.584Z,8.13
2023-01-06T10:45:11.791Z,8.09
2023-01-06T10:47:45.649Z,8.13
2023-01-06T10:50:15.207Z,8.19
2023-01-06T10:52:43.192Z,8.19
2023-01-06T10:55:28.347Z,8.23
2023-01-06T10:58:01.261Z,8.27
2023-01-06T11:00:29.322Z,8.35
2023-01-06T11:03:19.403Z,8.38
2023-01-06T11:05:47.430Z,8.43
2023-01-06T11:08:17.179Z,8.41
2023-01-06T11:10:54.334Z,8.41
2023-01-06T11:13:26.199Z,8.46
2023-01-06T11:15:55.138Z,8.47
2023-01-06T11:18:26.258Z,8.47
2023-01-06T11:21:10.239Z,8.49
2023-01-06T11:23:41.120Z,8.56
2023-01-06T11:26:19.075Z,8.50
2023-01-06T11:28:48.189Z,8.62
2023-01-06T11:31:22.025Z,8.62
2023-01-06T11:33:53.724Z,8.70
2023-01-06T11:36:22.477Z,8.73
2023-01-06T11:38:58.763Z,8.78
2023-01-06T11:41:33.175Z,8.76
2023-01-06T11:44:11.320Z,8.81
2023-01-06T11:46:46.128Z,8.75
2023-01-06T11:49:16.181Z,8.86
2023-01-06T11:51:49.341Z,8.90
2023-01-06T11:54:32.809Z,8.96
2023-01-06T11:57:18.528Z,9.07
2023-01-06T11:59:59.936Z,9.09
2023-01-06T12:02:35.261Z,9.07
2023-01-06T12:05:13.703Z,9.11
2023-01-06T12:07:46.659Z,9.16
2023-01-06T12:10:21.970Z,9.27
2023-01-06T12:12:50.715Z,9.38
2023-01-06T12:15:19.223Z,9.44
2023-01-06T12:17:52.616Z,9.48
2023-01-06T12:20:24.597Z,9.55
2023-01-06T12:22:54.607Z,9.59
2023-01-06T12:25:25.215Z,9.53
2023-01-06T12:27:58.446Z,9.56
2023-01-06T12:30:31.887Z,9.49
2023-01-06T12:33:04.385Z,9.38
2023-01-06T12:35:34.716Z,9.45
2023-01-06T12:38:14.956Z,9.48
2023-01-06T12:40:55.843Z,9.51
2023-01-06T12:43:28.483Z,9.52
2023-01-06T12:46:01.997Z,9.55
2023-01-06T12:48:40.760Z,9.57
2023-01-06T12:51:16.193Z,9.52
2023-01-06T12:53:47.935Z,9.50
2023-01-06T12:56:39.452Z,9.53
2023-01-06T12:59:19.416Z,9.57
2023-01-06T13:01:56.819Z,9.58
2023-01-06T13:04:54.411Z,9.58
2023-01-06T13:07:36.944Z,9.52
2023-01-06T13:10:14.228Z,9.49
2023-01-06T13:13:02.490Z,9.53
2023-01-06T13:15:36.736Z,9.53
2023-01-06T13:18:14.917Z,9.55
2023-01-06T13:20:46.673Z,9.56
2023-01-06T13:23:30.201Z,9.55
2023-01-06T13:26:26.846Z,9.52
2023-01-06T13:29:10.081Z,9.44
2023-01-06T13:32:16.648Z,9.40
2023-01-06T13:35:15.852Z,9.38
2023-01-06T13:37:57.924Z,9.34
2023-01-06T13:40:31.761Z,9.35
2023-01-06T13:43:07.949Z,9.32
2023-01-06T13:45:40.148Z,9.26
2023-01-06T13:48:11.279Z,9.25
2023-01-06T13:50:42.011Z,9.19
2023-01-06T13:53:18.638Z,9.13
2023-01-06T13:56:26.926Z,9.06
2023-01-06T14:00:29.511Z,8.91
2023-01-06T14:02:46.005Z,8.90
2023-01-06T14:05:58.430Z,8.82
2023-01-06T14:08:29.971Z,8.77
2023-01-06T14:11:22.482Z,8.63
2023-01-06T14:13:53.942Z,8.63
2023-01-06T14:16:23.612Z,8.57
2023-01-06T14:19:04.176Z,8.52
2023-01-06T14:21:33.301Z,8.47
2023-01-06T14:24:03.363Z,8.40
2023-01-06T14:26:50.074Z,8.35
2023-01-06T14:30:05.568Z,8.26
2023-01-06T14:32:50.873Z,8.16
2023-01-06T14:35:23.979Z,8.04
2023-01-06T14:37:57.501Z,7.94
2023-01-06T14:40:32.267Z,7.82
2023-01-06T14:43:07.892Z,7.72
2023-01-06T14:45:42.786Z,7.59
2023-01-06T14:48:14.958Z,7.51
2023-01-06T14:50:47.403Z,7.38
2023-01-06T14:53:29.785Z,7.22
2023-01-06T14:55:59.404Z,7.11
2023-01-06T14:58:34.846Z,7.01
2023-01-06T15:05:45.688Z,6.76
2023-01-06T15:08:18.986Z,6.61
2023-01-06T15:10:50.110Z,6.46
2023-01-06T15:13:25.764Z,6.37
2023-01-06T15:15:56.941Z,6.13
2023-01-06T15:18:25.828Z,5.98
2023-01-06T15:20:55.226Z,5.76
2023-01-06T15:23:27.259Z,5.49
2023-01-06T15:25:56.012Z,5.29
2023-01-06T15:28:27.202Z,5.34
2023-01-06T15:30:54.371Z,5.43
2023-01-06T15:33:25.016Z,5.36
2023-01-06T15:35:54.377Z,5.20
2023-01-06T15:38:28.663Z,5.09
2023-01-06T15:40:55.473Z,5.00
2023-01-06T15:43:27.230Z,4.83
2023-01-06T15:46:01.809Z,4.62
2023-01-06T15:48:33.749Z,4.43
2023-01-06T15:51:03.578Z,4.42
2023-01-06T15:53:37.445Z,4.38
2023-01-06T15:56:06.140Z,4.36
2023-01-06T15:58:39.736Z,4.26
2023-01-06T16:01:12.134Z,4.11
2023-01-06T16:03:40.051Z,3.98
2023-01-06T16:06:11.647Z,3.82
2023-01-06T16:08:42.528Z,3.60
2023-01-06T16:11:18.553Z,3.53
2023-01-06T16:13:59.625Z,3.64
2023-01-06T16:16:32.138Z,3.69
2023-01-06T16:19:08.729Z,3.62
2023-01-06T16:21:36.034Z,3.68
2023-01-06T16:24:06.360Z,3.61
2023-01-06T16:26:41.128Z,3.57
2023-01-06T16:29:26.129Z,3.53
2023-01-06T16:31:53.257Z,3.51
2023-01-06T16:34:26.670Z,3.45
2023-01-06T16:36:56.369Z,3.43
2023-01-06T16:39:27.666Z,3.41
2023-01-06T16:42:30.031Z,3.40
2023-01-06T16:45:01.125Z,3.45
2023-01-06T16:47:28.489Z,3.48
2023-01-06T16:49:55.549Z,3.48
2023-01-06T16:52:22.386Z,3.52
2023-01-06T16:54:57.034Z,3.45
2023-01-06T16:57:24.099Z,3.42
2023-01-06T16:59:51.001Z,3.37
2023-01-06T17:02:18.346Z,3.25
2023-01-06T17:04:46.488Z,3.23
2023-01-06T17:07:15.147Z,3.22
2023-01-06T17:09:43.107Z,3.19
2023-01-06T17:12:14.643Z,3.22
2023-01-06T17:14:42.275Z,3.20
2023-01-06T17:17:22.084Z,3.21
2023-01-06T17:19:49.373Z,3.16
2023-01-06T17:22:28.386Z,3.02
2023-01-06T17:24:57.237Z,2.89
2023-01-06T17:27:26.734Z,2.83
2023-01-06T17:29:55.092Z,2.70
2023-01-06T17:32:29.695Z,2.39
2023-01-06T17:34:58.085Z,2.62
2023-01-06T17:37:27.513Z,2.74
2023-01-06T17:39:54.790Z,2.83
2023-01-06T17:42:29.111Z,2.85
2023-01-06T17:44:58.250Z,2.78
2023-01-06T17:47:28.905Z,2.68
2023-01-06T17:49:57.373Z,2.53
2023-01-06T17:52:29.868Z,2.51
2023-01-06T17:54:59.494Z,2.52
2023-01-06T17:57:30.126Z,2.58
2023-01-06T17:59:57.837Z,2.48
2023-01-06T18:02:38.371Z,2.49
2023-01-06T18:05:58.387Z,2.55
2023-01-06T18:08:26.835Z,2.60
2023-01-06T18:11:06.843Z,2.63
2023-01-06T18:13:43.457Z,2.67
2023-01-06T18:16:23.895Z,2.65
2023-01-06T18:18:52.098Z,2.58
2023-01-06T18:21:33.236Z,2.58
2023-01-06T18:24:15.182Z,2.60
2023-01-06T18:26:47.474Z,2.62
2023-01-06T18:29:25.305Z,2.54
2023-01-06T18:31:56.144Z,2.52
2023-01-06T18:34:39.323Z,2.68
2023-01-06T18:37:07.885Z,2.68
2023-01-06T18:39:42.722Z,2.79
2023-01-06T18:42:26.693Z,2.66
2023-01-06T18:45:48.277Z,2.52
2023-01-06T18:48:28.059Z,2.41
2023-01-06T18:51:00.497Z,2.45
2023-01-06T18:53:29.173Z,2.45
2023-01-06T18:55:57.769Z,2.54
2023-01-06T18:58:40.488Z,2.57
2023-01-06T19:01:15.630Z,2.53
2023-01-06T19:03:58.178Z,2.35
2023-01-06T19:06:36.396Z,2.24
2023-01-06T19:09:15.960Z,2.25
2023-01-06T19:11:45.513Z,2.14
2023-01-06T19:14:16.754Z,2.14
2023-01-06T19:16:49.052Z,2.43
2023-01-06T19:19:44.162Z,2.55
2023-01-06T19:22:18.595Z,2.57
2023-01-06T19:24:49.724Z,2.55
2023-01-06T19:27:32.462Z,2.65
2023-01-06T19:30:27.299Z,2.51
2023-01-06T19:32:54.494Z,2.31
2023-01-06T19:35:27.387Z,2.27
2023-01-06T19:37:58.218Z,2.16
2023-01-06T19:40:27.936Z,2.09
2023-01-06T19:43:00.274Z,2.13
2023-01-06T19:45:29.858Z,2.02
2023-01-06T19:47:59.069Z,1.98
2023-01-06T19:50:27.497Z,1.96
2023-01-06T19:52:59.723Z,1.97
2023-01-06T19:55:29.019Z,1.65
2023-01-06T19:58:00.208Z,1.80
2023-01-06T20:00:30.348Z,1.87
2023-01-06T20:03:01.608Z,1.87
2023-01-06T20:05:31.808Z,1.88
2023-01-06T20:08:01.042Z,1.88
2023-01-06T20:10:30.543Z,1.87
2023-01-06T20:12:57.837Z,1.73
2023-01-06T20:15:27.318Z,1.74
2023-01-06T20:17:54.350Z,1.80
2023-01-06T20:20:21.640Z,1.92
2023-01-06T20:22:50.487Z,2.01
2023-01-06T20:25:19.497Z,1.99
2023-01-06T20:27:47.064Z,1.84
2023-01-06T20:30:14.794Z,1.77
2023-01-06T20:32:41.909Z,1.75
2023-01-06T20:35:09.836Z,1.74
2023-01-06T20:37:36.733Z,1.71
2023-01-06T20:40:07.197Z,1.83
2023-01-06T20:42:34.156Z,1.80
2023-01-06T20:45:01.361Z,1.84
2023-01-06T20:47:28.845Z,1.84
2023-01-06T20:49:55.696Z,1.76
2023-01-06T20:52:23.778Z,1.74
2023-01-06T20:54:51.089Z,1.65
2023-01-06T20:57:20.109Z,1.64
2023-01-06T20:59:47.130Z,1.63
2023-01-06T21:02:14.660Z,1.61
2023-01-06T21:04:41.852Z,1.64
2023-01-06T21:07:11.987Z,1.58
2023-01-06T21:09:38.798Z,1.54
2023-01-06T21:12:06.617Z,1.50
2023-01-06T21:14:34.986Z,1.50
2023-01-06T21:17:02.034Z,1.52
2023-01-06T21:19:29.219Z,1.59
2023-01-06T21:21:56.594Z,1.61
2023-01-06T21:24:23.574Z,1.61
2023-01-06T21:26:50.779Z,1.64
2023-01-06T21:29:17.637Z,1.69
2023-01-06T21:31:45.959Z,1.69
2023-01-06T21:34:13.999Z,1.74
2023-01-06T21:36:40.921Z,1.68
2023-01-06T21:39:07.955Z,1.70
2023-01-06T21:41:35.039Z,1.70
2023-01-06T21:44:02.995Z,1.54
2023-01-06T21:46:30.228Z,1.49
2023-01-06T21:48:58.817Z,1.47
2023-01-06T21:51:27.169Z,1.39
2023-01-06T21:53:54.242Z,1.45
2023-01-06T21:56:21.525Z,1.42
2023-01-06T21:58:48.446Z,1.42
2023-01-06T22:01:15.765Z,1.34
2023-01-06T22:03:42.888Z,1.32
2023-01-06T22:06:11.372Z,1.28
2023-01-06T22:08:38.986Z,1.23
2023-01-06T22:11:08.683Z,1.22
2023-01-06T22:13:38.586Z,1.29
2023-01-06T22:16:06.322Z,1.25
2023-01-06T22:18:35.998Z,1.29
2023-01-06T22:21:03.440Z,1.29
2023-01-06T22:23:32.809Z,1.26
2023-01-06T22:25:59.803Z,1.26
2023-01-06T22:28:29.788Z,1.26
2023-01-06T22:30:56.803Z,1.23
2023-01-06T22:33:24.212Z,1.19
2023-01-06T22:35:51.101Z,0.98
2023-01-06T22:38:19.456Z,0.75
2023-01-06T22:40:48.248Z,0.85
2023-01-06T22:43:15.405Z,0.91
2023-01-06T22:45:42.365Z,0.93
2023-01-06T22:48:10.647Z,0.97
2023-01-06T22:50:38.107Z,1.05
2023-01-06T22:53:06.275Z,1.02
2023-01-06T22:55:33.234Z,0.99
2023-01-06T22:58:01.658Z,0.99
2023-01-06T23:00:28.658Z,1.03
2023-01-06T23:02:56.053Z,1.12
2023-01-06T23:05:23.182Z,1.17
2023-01-06T23:07:54.625Z,1.15
2023-01-06T23:10:21.802Z,1.11
2023-01-06T23:12:50.776Z,1.12
2023-01-06T23:15:19.090Z,1.12
2023-01-06T23:17:47.213Z,1.11
2023-01-06T23:20:14.159Z,1.07
2023-01-06T23:22:41.177Z,1.00
2023-01-06T23:25:08.627Z,0.89
2023-01-06T23:27:38.028Z,0.80
2023-01-06T23:30:07.101Z,0.73
2023-01-06T23:32:35.568Z,0.67
2023-01-06T23:35:02.665Z,0.60
2023-01-06T23:37:29.543Z,0.70
2023-01-06T23:39:57.465Z,0.73
2023-01-06T23:42:25.654Z,0.71
2023-01-06T23:44:53.656Z,0.76
2023-01-06T23:47:20.557Z,0.75
2023-01-06T23:49:48.948Z,0.74
2023-01-06T23:52:15.858Z,0.75
2023-01-06T23:54:43.215Z,0.76
2023-01-06T23:57:10.330Z,0.71
2023-01-06T23:59:37.723Z,0.56
